createdAt,value
2022-10-23T00:01:23.477Z,5.20
2022-10-23T00:03:33.405Z,8.50
2022-10-23T00:05:45.635Z,6.30
2022-10-23T00:07:57.417Z,10.10
2022-10-23T00:10:08.523Z,10.00
2022-10-23T00:12:18.567Z,4.90
2022-10-23T00:14:29.278Z,6.50
2022-10-23T00:16:39.334Z,12.70
2022-10-23T00:18:49.585Z,13.30
2022-10-23T00:21:00.051Z,12.60
2022-10-23T00:23:10.096Z,17.30
2022-10-23T00:25:20.748Z,14.80
2022-10-23T00:27:31.110Z,14.70
2022-10-23T00:29:41.211Z,11.90
2022-10-23T00:31:51.223Z,10.40
2022-10-23T00:34:01.461Z,6.10
2022-10-23T00:36:14.734Z,5.90
2022-10-23T00:38:26.771Z,6.50
2022-10-23T00:40:37.285Z,5.90
2022-10-23T00:42:47.234Z,7.80
2022-10-23T00:45:23.033Z,10.40
2022-10-23T00:47:33.196Z,10.00
2022-10-23T00:49:43.414Z,13.70
2022-10-23T00:51:55.081Z,10.30
2022-10-23T00:56:41.465Z,13.60
2022-10-23T00:58:51.603Z,10.90
2022-10-23T01:01:01.797Z,8.80
2022-10-23T01:03:12.011Z,7.50
2022-10-23T01:05:27.510Z,6.70
2022-10-23T01:07:45.444Z,5.40
2022-10-23T01:10:04.487Z,5.80
2022-10-23T01:12:26.327Z,5.90
2022-10-23T01:14:42.827Z,7.20
2022-10-23T01:17:02.698Z,5.80
2022-10-23T01:19:24.096Z,4.70
2022-10-23T01:21:45.539Z,6.70
2022-10-23T01:24:14.466Z,7.70
2022-10-23T01:26:39.910Z,6.00
2022-10-23T01:29:01.887Z,5.30
2022-10-23T01:31:18.487Z,6.60
2022-10-23T01:33:33.975Z,5.70
2022-10-23T01:35:50.186Z,5.80
2022-10-23T01:38:07.873Z,5.60
2022-10-23T01:40:25.259Z,4.80
2022-10-23T01:42:40.529Z,4.90
2022-10-23T01:44:55.973Z,4.70
2022-10-23T01:47:09.210Z,4.00
2022-10-23T01:49:33.899Z,3.30
2022-10-23T01:53:58.103Z,3.40
2022-10-23T01:56:13.046Z,2.70
2022-10-23T01:58:24.467Z,2.00
2022-10-23T02:00:35.728Z,2.20
2022-10-23T02:02:48.128Z,2.50
2022-10-23T02:05:02.758Z,3.30
2022-10-23T02:07:12.866Z,3.80
2022-10-23T02:09:23.281Z,5.90
2022-10-23T02:11:37.771Z,6.60
2022-10-23T02:13:54.631Z,7.20
2022-10-23T02:16:12.434Z,6.30
2022-10-23T02:18:36.919Z,17.40
2022-10-23T02:20:50.081Z,6.10
2022-10-23T02:23:10.404Z,3.80
2022-10-23T02:25:24.915Z,11.10
2022-10-23T02:27:38.453Z,14.90
2022-10-23T02:29:54.281Z,14.70
2022-10-23T02:32:04.996Z,9.70
2022-10-23T02:34:15.018Z,5.70
2022-10-23T02:36:25.430Z,5.40
2022-10-23T02:38:38.808Z,3.40
2022-10-23T02:40:51.746Z,2.50
2022-10-23T02:43:07.117Z,2.40
2022-10-23T02:45:28.114Z,3.40
2022-10-23T02:47:54.459Z,4.10
2022-10-23T02:50:12.989Z,4.60
2022-10-23T02:52:31.412Z,4.00
2022-10-23T02:55:06.881Z,4.20
2022-10-23T02:57:33.445Z,3.70
2022-10-23T02:59:49.976Z,3.70
2022-10-23T03:02:10.446Z,2.20
2022-10-23T03:04:23.353Z,2.30
2022-10-23T03:06:34.786Z,1.70
2022-10-23T03:08:54.505Z,2.20
2022-10-23T03:11:07.414Z,2.70
2022-10-23T03:13:17.554Z,1.80
2022-10-23T03:15:27.767Z,1.50
2022-10-23T03:17:38.176Z,1.00
2022-10-23T03:19:50.012Z,1.30
2022-10-23T03:21:59.972Z,1.60
2022-10-23T03:24:10.853Z,1.40
2022-10-23T03:26:25.869Z,1.30
2022-10-23T03:28:36.910Z,1.30
2022-10-23T03:30:47.036Z,1.30
2022-10-23T03:32:57.173Z,1.40
2022-10-23T03:35:08.168Z,1.70
2022-10-23T03:37:18.402Z,1.60
2022-10-23T03:39:28.461Z,1.90
2022-10-23T03:41:39.702Z,1.40
2022-10-23T03:43:50.698Z,1.60
2022-10-23T03:46:02.651Z,1.80
2022-10-23T03:48:12.804Z,4.20
2022-10-23T03:50:23.746Z,3.50
2022-10-23T03:52:33.870Z,2.20
2022-10-23T03:54:44.035Z,1.10
2022-10-23T03:56:57.380Z,1.10
2022-10-23T03:59:09.232Z,1.00
2022-10-23T04:01:19.503Z,0.70
2022-10-23T04:03:29.770Z,0.60
2022-10-23T04:05:40.019Z,1.10
2022-10-23T04:07:50.090Z,2.20
2022-10-23T04:10:00.136Z,1.80
2022-10-23T04:12:11.509Z,1.10
2022-10-23T04:14:22.966Z,3.90
2022-10-23T04:16:33.139Z,1.80
2022-10-23T04:18:44.515Z,1.20
2022-10-23T04:20:55.297Z,1.90
2022-10-23T04:23:05.492Z,2.10
2022-10-23T04:25:17.557Z,2.80
2022-10-23T04:27:28.061Z,4.50
2022-10-23T04:29:38.827Z,5.90
2022-10-23T04:31:48.895Z,3.50
2022-10-23T04:33:59.940Z,3.80
2022-10-23T04:36:15.691Z,1.60
2022-10-23T04:38:26.652Z,1.00
2022-10-23T04:40:37.097Z,1.70
2022-10-23T04:42:47.783Z,2.50
2022-10-23T04:44:57.943Z,4.20
2022-10-23T04:47:08.273Z,7.30
2022-10-23T04:49:27.662Z,7.20
2022-10-23T04:51:55.944Z,6.90
2022-10-23T04:54:28.905Z,3.40
2022-10-23T04:57:03.674Z,3.30
2022-10-23T04:59:28.456Z,8.20
2022-10-23T05:01:39.181Z,7.80
2022-10-23T05:03:50.982Z,5.40
2022-10-23T05:06:01.368Z,2.20
2022-10-23T05:08:30.370Z,5.50
2022-10-23T05:11:03.550Z,6.20
2022-10-23T05:13:20.102Z,5.90
2022-10-23T05:15:30.276Z,4.80
2022-10-23T05:17:43.007Z,1.90
2022-10-23T05:19:56.434Z,5.10
2022-10-23T05:22:07.439Z,6.30
2022-10-23T05:24:32.945Z,4.30
2022-10-23T05:26:47.534Z,2.30
2022-10-23T05:28:58.550Z,1.20
2022-10-23T05:31:10.318Z,1.00
2022-10-23T05:33:23.215Z,1.30
2022-10-23T05:35:34.200Z,2.10
2022-10-23T05:37:47.501Z,4.50
2022-10-23T05:40:02.845Z,1.50
2022-10-23T05:42:13.858Z,3.40
2022-10-23T05:44:24.878Z,1.20
2022-10-23T05:46:51.859Z,1.10
2022-10-23T05:49:31.241Z,1.10
2022-10-23T05:52:04.369Z,6.60
2022-10-23T05:54:29.745Z,10.40
2022-10-23T05:57:04.354Z,8.30
2022-10-23T05:59:23.013Z,10.10
2022-10-23T06:01:40.886Z,12.00
2022-10-23T06:03:52.273Z,6.00
2022-10-23T06:06:03.598Z,3.30
2022-10-23T06:08:25.594Z,4.70
2022-10-23T06:10:37.247Z,1.60
2022-10-23T06:12:49.965Z,6.00
2022-10-23T06:15:00.592Z,5.80
2022-10-23T06:17:24.568Z,2.30
2022-10-23T06:19:34.894Z,1.50
2022-10-23T06:21:46.233Z,1.10
2022-10-23T06:23:57.707Z,2.00
2022-10-23T06:26:18.037Z,6.00
2022-10-23T06:28:38.760Z,3.70
2022-10-23T06:30:48.925Z,2.00
2022-10-23T06:33:02.043Z,5.70
2022-10-23T06:35:15.476Z,7.00
2022-10-23T06:37:25.774Z,12.60
2022-10-23T06:39:48.166Z,8.40
2022-10-23T06:41:58.424Z,3.00
2022-10-23T06:44:27.325Z,3.90
2022-10-23T06:46:41.689Z,9.90
2022-10-23T06:49:01.106Z,9.50
2022-10-23T06:51:17.200Z,5.60
2022-10-23T06:53:28.387Z,1.80
2022-10-23T06:55:50.081Z,2.10
2022-10-23T06:58:03.229Z,6.60
2022-10-23T07:00:16.251Z,10.10
2022-10-23T07:02:34.637Z,13.00
2022-10-23T07:04:45.176Z,6.00
2022-10-23T07:07:01.349Z,6.90
2022-10-23T07:09:19.015Z,1.80
2022-10-23T07:11:35.278Z,1.20
2022-10-23T07:13:47.104Z,1.50
2022-10-23T07:16:00.742Z,7.10
2022-10-23T07:18:14.942Z,4.00
2022-10-23T07:20:51.983Z,2.10
2022-10-23T07:23:03.304Z,1.70
2022-10-23T07:25:19.150Z,3.00
2022-10-23T07:27:30.464Z,0.80
2022-10-23T07:29:43.816Z,0.70
2022-10-23T07:31:53.838Z,0.80
2022-10-23T07:34:33.897Z,0.90
2022-10-23T07:37:04.271Z,0.80
2022-10-23T07:39:14.775Z,1.20
2022-10-23T07:41:30.827Z,1.50
2022-10-23T07:43:40.962Z,0.80
2022-10-23T07:45:53.470Z,0.80
2022-10-23T07:48:08.431Z,0.70
2022-10-23T07:50:42.076Z,0.70
2022-10-23T07:52:52.236Z,1.10
2022-10-23T07:55:03.701Z,0.80
2022-10-23T07:57:16.700Z,0.80
2022-10-23T07:59:35.774Z,0.80
2022-10-23T08:01:55.738Z,1.00
2022-10-23T08:04:11.386Z,0.70
2022-10-23T08:06:28.191Z,0.70
2022-10-23T08:08:38.485Z,0.60
2022-10-23T08:10:50.344Z,0.50
2022-10-23T08:13:06.037Z,0.60
2022-10-23T08:15:34.020Z,0.70
2022-10-23T08:17:48.499Z,0.50
2022-10-23T08:20:17.686Z,0.60
2022-10-23T08:22:28.210Z,0.70
2022-10-23T08:24:38.284Z,0.80
2022-10-23T08:26:48.558Z,0.70
2022-10-23T08:29:00.492Z,0.60
2022-10-23T08:31:14.929Z,0.70
2022-10-23T08:33:32.327Z,0.50
2022-10-23T08:35:42.918Z,0.50
2022-10-23T08:37:53.509Z,1.50
2022-10-23T08:40:04.767Z,0.40
2022-10-23T08:42:33.499Z,0.40
2022-10-23T08:44:52.301Z,0.50
2022-10-23T08:47:10.577Z,0.60
2022-10-23T08:49:51.447Z,0.50
2022-10-23T08:52:04.867Z,1.00
2022-10-23T08:54:20.254Z,0.50
2022-10-23T08:56:34.818Z,0.60
2022-10-23T08:58:49.347Z,0.70
2022-10-23T09:00:59.870Z,0.60
2022-10-23T09:03:12.828Z,0.60
2022-10-23T09:05:29.391Z,0.40
2022-10-23T09:07:49.918Z,0.60
2022-10-23T09:10:15.826Z,0.50
2022-10-23T09:12:28.301Z,0.50
2022-10-23T09:17:07.041Z,0.50
2022-10-23T09:19:20.321Z,0.50
2022-10-23T09:21:32.388Z,0.50
2022-10-23T09:23:42.944Z,0.50
2022-10-23T09:25:57.362Z,0.60
2022-10-23T09:28:08.383Z,0.60
2022-10-23T09:30:30.454Z,0.60
2022-10-23T09:32:43.539Z,0.70
2022-10-23T09:34:57.526Z,0.70
2022-10-23T09:37:22.691Z,0.50
2022-10-23T09:39:35.715Z,0.60
2022-10-23T09:41:47.615Z,0.70
2022-10-23T09:44:16.369Z,0.60
2022-10-23T09:46:27.862Z,0.80
2022-10-23T09:48:38.867Z,1.10
2022-10-23T09:50:53.741Z,0.70
2022-10-23T09:53:04.765Z,0.70
2022-10-23T09:55:25.669Z,0.80
2022-10-23T09:57:39.601Z,0.80
2022-10-23T09:59:56.569Z,0.80
2022-10-23T10:02:22.417Z,0.80
2022-10-23T10:04:47.402Z,1.00
2022-10-23T10:07:02.467Z,0.40
2022-10-23T10:09:16.336Z,0.90
2022-10-23T10:11:36.223Z,0.60
2022-10-23T10:14:13.454Z,0.50
2022-10-23T10:16:34.708Z,0.60
2022-10-23T10:18:50.517Z,0.50
2022-10-23T10:21:10.398Z,0.70
2022-10-23T10:23:30.986Z,0.90
2022-10-23T10:25:49.874Z,0.60
2022-10-23T10:28:20.764Z,0.60
2022-10-23T10:30:38.286Z,0.50
2022-10-23T10:32:54.049Z,0.60
2022-10-23T10:35:18.243Z,0.50
2022-10-23T10:37:37.213Z,0.50
2022-10-23T10:39:55.810Z,0.50
2022-10-23T10:42:26.224Z,0.60
2022-10-23T10:44:50.996Z,0.60
2022-10-23T10:47:07.962Z,0.50
2022-10-23T10:49:26.805Z,0.60
2022-10-23T10:52:09.071Z,0.50
2022-10-23T10:54:35.095Z,0.60
2022-10-23T10:56:49.490Z,0.50
2022-10-23T10:59:02.674Z,0.50
2022-10-23T11:01:19.638Z,0.50
2022-10-23T11:03:39.197Z,0.50
2022-10-23T11:05:52.134Z,1.10
2022-10-23T11:08:07.646Z,0.50
2022-10-23T11:10:21.120Z,0.60
2022-10-23T11:12:32.815Z,0.60
2022-10-23T11:14:44.636Z,0.50
2022-10-23T11:16:58.798Z,0.50
2022-10-23T11:19:15.455Z,0.50
2022-10-23T11:21:35.085Z,0.60
2022-10-23T11:24:14.703Z,0.80
2022-10-23T11:26:37.418Z,1.00
2022-10-23T11:29:06.818Z,0.60
2022-10-23T11:31:28.227Z,0.60
2022-10-23T11:34:07.506Z,0.60
2022-10-23T11:36:21.238Z,0.50
2022-10-23T11:38:33.768Z,0.50
2022-10-23T11:45:04.966Z,0.50
2022-10-23T11:47:39.628Z,0.60
2022-10-23T11:49:50.566Z,0.70
2022-10-23T11:52:25.569Z,0.70
2022-10-23T11:54:36.066Z,0.50
2022-10-23T11:57:07.994Z,0.50
2022-10-23T11:59:28.278Z,0.70
2022-10-23T12:01:44.652Z,0.60
2022-10-23T12:03:58.851Z,0.60
2022-10-23T12:06:20.424Z,0.60
2022-10-23T12:08:34.837Z,0.80
2022-10-23T12:10:53.364Z,0.50
2022-10-23T12:13:06.461Z,1.00
2022-10-23T12:15:27.738Z,0.80
2022-10-23T12:17:42.410Z,0.60
2022-10-23T12:19:55.427Z,0.80
2022-10-23T12:22:06.091Z,0.60
2022-10-23T12:24:32.559Z,1.40
2022-10-23T12:27:10.352Z,0.80
2022-10-23T12:29:30.437Z,0.60
2022-10-23T12:31:51.909Z,1.20
2022-10-23T12:34:11.512Z,0.70
2022-10-23T12:36:43.120Z,0.70
2022-10-23T12:38:55.217Z,0.60
2022-10-23T12:41:13.502Z,1.10
2022-10-23T12:43:29.666Z,0.60
2022-10-23T12:45:45.620Z,0.70
2022-10-23T12:47:56.888Z,1.20
2022-10-23T12:50:18.798Z,0.70
2022-10-23T12:52:28.817Z,0.80
2022-10-23T12:54:43.232Z,0.70
2022-10-23T12:56:53.626Z,1.00
2022-10-23T12:59:04.587Z,1.50
2022-10-23T13:01:29.395Z,1.00
2022-10-23T13:03:40.484Z,0.70
2022-10-23T13:05:54.116Z,0.60
2022-10-23T13:08:05.195Z,0.70
2022-10-23T13:10:31.422Z,0.90
2022-10-23T13:12:52.737Z,0.70
2022-10-23T13:15:15.932Z,0.90
2022-10-23T13:17:35.872Z,0.70
2022-10-23T13:19:45.906Z,0.70
2022-10-23T13:21:56.181Z,0.90
2022-10-23T13:24:07.261Z,0.60
2022-10-23T13:26:37.099Z,0.80
2022-10-23T13:28:47.918Z,1.20
2022-10-23T13:31:24.890Z,1.00
2022-10-23T13:33:39.221Z,0.60
2022-10-23T13:35:59.458Z,2.80
2022-10-23T13:38:13.750Z,0.70
2022-10-23T13:40:27.854Z,0.80
2022-10-23T13:42:38.131Z,0.80
2022-10-23T13:44:50.256Z,0.60
2022-10-23T13:47:00.443Z,1.20
2022-10-23T13:49:10.752Z,0.80
2022-10-23T13:51:24.289Z,0.70
2022-10-23T13:53:35.463Z,0.50
2022-10-23T13:55:47.942Z,0.90
2022-10-23T13:57:58.096Z,0.60
2022-10-23T14:00:09.786Z,0.50
2022-10-23T14:02:24.005Z,0.60
2022-10-23T14:06:42.688Z,1.00
2022-10-23T14:08:52.854Z,0.90
2022-10-23T14:11:03.216Z,2.00
2022-10-23T14:13:13.544Z,0.70
2022-10-23T14:15:23.809Z,0.60
2022-10-23T14:17:34.033Z,0.60
2022-10-23T14:19:44.547Z,0.90
2022-10-23T14:21:54.652Z,1.50
2022-10-23T14:24:05.574Z,1.00
2022-10-23T14:26:17.232Z,0.80
2022-10-23T14:28:27.477Z,0.70
2022-10-23T14:30:41.236Z,0.80
2022-10-23T14:32:51.449Z,0.60
2022-10-23T14:35:04.427Z,0.80
2022-10-23T14:37:18.527Z,0.90
2022-10-23T14:39:28.496Z,0.70
2022-10-23T14:41:40.922Z,0.60
2022-10-23T14:43:51.131Z,1.00
2022-10-23T14:46:09.602Z,1.00
2022-10-23T14:48:20.848Z,0.70
2022-10-23T14:50:33.298Z,0.60
2022-10-23T14:52:43.371Z,0.70
2022-10-23T14:54:55.346Z,1.00
2022-10-23T14:57:05.560Z,0.70
2022-10-23T14:59:15.706Z,0.60
2022-10-23T15:01:25.971Z,0.70
2022-10-23T15:03:36.409Z,0.90
2022-10-23T15:05:47.481Z,0.70
2022-10-23T15:07:59.749Z,0.80
2022-10-23T15:10:10.816Z,0.80
2022-10-23T15:12:21.243Z,0.90
2022-10-23T15:14:31.629Z,0.80
2022-10-23T15:16:42.880Z,0.70
2022-10-23T15:18:52.939Z,0.90
2022-10-23T15:21:05.947Z,0.70
2022-10-23T15:25:24.148Z,1.00
2022-10-23T15:27:34.153Z,0.90
2022-10-23T15:29:44.634Z,1.20
2022-10-23T15:31:57.941Z,0.70
2022-10-23T15:34:09.930Z,1.30
2022-10-23T15:36:19.987Z,0.80
2022-10-23T15:38:30.094Z,1.00
2022-10-23T15:40:40.205Z,0.90
2022-10-23T15:42:52.116Z,1.00
2022-10-23T15:45:02.263Z,0.90
2022-10-23T15:47:12.331Z,0.80
2022-10-23T15:49:22.855Z,0.80
2022-10-23T15:51:33.500Z,1.00
2022-10-23T15:53:43.539Z,0.80
2022-10-23T15:55:53.725Z,1.10
2022-10-23T15:58:06.860Z,1.00
2022-10-23T16:00:20.326Z,0.80
2022-10-23T16:02:31.291Z,1.00
2022-10-23T16:04:41.571Z,0.80
2022-10-23T16:06:51.801Z,0.90
2022-10-23T16:09:02.088Z,0.80
2022-10-23T16:11:18.420Z,0.80
2022-10-23T16:13:28.506Z,0.70
2022-10-23T16:15:41.140Z,1.30
2022-10-23T16:17:51.182Z,0.70
2022-10-23T16:20:01.337Z,1.20
2022-10-23T16:22:12.204Z,0.70
2022-10-23T16:24:22.499Z,0.80
2022-10-23T16:26:33.081Z,0.90
2022-10-23T16:28:44.340Z,0.90
2022-10-23T16:30:54.656Z,0.90
2022-10-23T16:33:04.745Z,1.00
2022-10-23T16:35:14.794Z,0.60
2022-10-23T16:37:31.694Z,0.80
2022-10-23T16:39:48.251Z,0.90
2022-10-23T16:44:48.193Z,1.10
2022-10-23T16:46:58.579Z,0.70
2022-10-23T16:49:10.420Z,1.10
2022-10-23T16:51:22.018Z,1.10
2022-10-23T16:53:33.683Z,2.10
2022-10-23T16:55:46.203Z,0.90
2022-10-23T17:00:04.215Z,1.10
2022-10-23T17:04:25.149Z,1.80
2022-10-23T17:06:36.749Z,2.30
2022-10-23T17:08:47.259Z,31.60
2022-10-23T17:11:08.048Z,35.40
2022-10-23T17:13:21.372Z,23.00
2022-10-23T17:15:31.939Z,22.10
2022-10-23T17:17:42.282Z,37.70
2022-10-23T17:19:52.677Z,43.50
2022-10-23T17:22:03.507Z,46.10
2022-10-23T17:24:14.935Z,52.20
2022-10-23T17:26:26.279Z,45.70
2022-10-23T17:28:40.431Z,41.20
2022-10-23T17:30:50.573Z,39.40
2022-10-23T17:33:01.957Z,38.00
2022-10-23T17:35:14.052Z,31.00
2022-10-23T17:37:24.372Z,27.00
2022-10-23T17:39:34.443Z,32.10
2022-10-23T17:41:44.802Z,33.10
2022-10-23T17:43:57.400Z,29.40
2022-10-23T17:46:08.579Z,34.20
2022-10-23T17:48:18.828Z,31.80
2022-10-23T17:50:29.114Z,31.50
2022-10-23T17:52:38.623Z,32.70
2022-10-23T17:54:48.676Z,33.20
2022-10-23T17:56:59.196Z,27.30
2022-10-23T17:59:13.575Z,31.70
2022-10-23T18:01:26.811Z,30.60
2022-10-23T18:03:37.889Z,23.80
2022-10-23T18:05:49.271Z,20.70
2022-10-23T18:07:59.303Z,22.20
2022-10-23T18:10:11.721Z,18.30
2022-10-23T18:12:21.985Z,18.10
2022-10-23T18:14:35.429Z,19.10
2022-10-23T18:16:47.408Z,16.40
2022-10-23T18:18:57.663Z,17.70
2022-10-23T18:21:08.310Z,15.80
2022-10-23T18:23:20.558Z,13.60
2022-10-23T18:25:30.603Z,9.40
2022-10-23T18:27:42.091Z,8.70
2022-10-23T18:29:51.993Z,9.20
2022-10-23T18:32:02.773Z,9.60
2022-10-23T18:34:22.085Z,10.00
2022-10-23T18:36:33.697Z,8.90
2022-10-23T18:38:44.603Z,9.10
2022-10-23T18:40:58.426Z,7.40
2022-10-23T18:43:14.844Z,9.60
2022-10-23T18:45:25.621Z,11.70
2022-10-23T18:47:35.738Z,11.90
2022-10-23T18:49:46.060Z,9.20
2022-10-23T18:51:56.393Z,10.00
2022-10-23T18:54:11.248Z,10.30
2022-10-23T18:56:23.442Z,10.10
2022-10-23T19:00:44.331Z,7.30
2022-10-23T19:02:54.587Z,9.10
2022-10-23T19:05:05.278Z,9.70
2022-10-23T19:07:15.348Z,11.60
2022-10-23T19:09:25.581Z,8.50
2022-10-23T19:11:35.712Z,9.80
2022-10-23T19:13:46.212Z,10.10
2022-10-23T19:15:56.751Z,11.20
2022-10-23T19:18:08.999Z,10.00
2022-10-23T19:20:23.043Z,12.20
2022-10-23T19:22:36.842Z,11.90
2022-10-23T19:24:51.551Z,11.20
2022-10-23T19:27:03.454Z,8.60
2022-10-23T19:29:17.510Z,10.10
2022-10-23T19:31:29.241Z,8.80
2022-10-23T19:33:40.240Z,10.00
2022-10-23T19:35:50.223Z,8.70
2022-10-23T19:38:00.674Z,9.80
2022-10-23T19:40:13.336Z,9.80
2022-10-23T19:42:23.324Z,8.90
2022-10-23T19:44:33.710Z,9.40
2022-10-23T19:46:43.875Z,9.60
2022-10-23T19:48:54.020Z,9.30
2022-10-23T19:51:04.086Z,9.00
2022-10-23T19:53:14.705Z,8.70
2022-10-23T19:55:25.035Z,9.20
2022-10-23T19:57:35.480Z,9.00
2022-10-23T19:59:45.592Z,8.70
2022-10-23T20:01:55.833Z,12.60
2022-10-23T20:04:06.210Z,8.90
2022-10-23T20:06:20.742Z,10.40
2022-10-23T20:08:32.764Z,9.30
2022-10-23T20:10:48.408Z,8.50
2022-10-23T20:13:15.160Z,11.80
2022-10-23T20:15:28.680Z,8.70
2022-10-23T20:17:39.828Z,8.50
2022-10-23T20:19:50.467Z,8.30
2022-10-23T20:22:01.291Z,9.00
2022-10-23T20:24:12.937Z,9.00
2022-10-23T20:26:24.426Z,9.00
2022-10-23T20:28:35.524Z,9.20
2022-10-23T20:30:47.223Z,6.40
2022-10-23T20:32:57.782Z,6.40
2022-10-23T20:35:08.494Z,8.00
2022-10-23T20:37:18.678Z,8.90
2022-10-23T20:39:30.221Z,7.60
2022-10-23T20:41:41.457Z,7.80
2022-10-23T20:43:51.535Z,10.30
2022-10-23T20:46:04.840Z,9.10
2022-10-23T20:48:15.088Z,9.70
2022-10-23T20:50:25.587Z,7.20
2022-10-23T20:52:34.605Z,6.40
2022-10-23T20:54:45.010Z,6.50
2022-10-23T20:56:55.994Z,7.20
2022-10-23T20:59:07.664Z,6.10
2022-10-23T21:01:21.474Z,7.30
2022-10-23T21:03:31.649Z,7.90
2022-10-23T21:05:44.030Z,8.80
2022-10-23T21:07:54.493Z,8.30
2022-10-23T21:10:05.448Z,8.00
2022-10-23T21:12:15.490Z,9.10
2022-10-23T21:14:25.939Z,8.80
2022-10-23T21:16:41.387Z,9.50
2022-10-23T21:18:51.536Z,7.70
2022-10-23T21:21:01.765Z,7.20
2022-10-23T21:23:12.503Z,8.10
2022-10-23T21:25:22.546Z,8.60
2022-10-23T21:27:32.704Z,10.10
2022-10-23T21:29:42.884Z,7.40
2022-10-23T21:31:58.476Z,6.80
2022-10-23T21:36:26.251Z,6.80
2022-10-23T21:38:36.403Z,5.90
2022-10-23T21:40:47.373Z,4.80
2022-10-23T21:42:57.738Z,5.50
2022-10-23T21:45:09.275Z,6.00
2022-10-23T21:47:20.247Z,6.10
2022-10-23T21:49:30.197Z,6.90
2022-10-23T21:51:41.936Z,7.00
2022-10-23T21:53:52.333Z,5.70
2022-10-23T21:56:09.005Z,6.50
2022-10-23T21:58:19.191Z,5.30
2022-10-23T22:00:30.548Z,5.10
2022-10-23T22:02:41.558Z,4.80
2022-10-23T22:04:51.830Z,3.50
2022-10-23T22:07:03.206Z,4.20
2022-10-23T22:09:14.769Z,5.40
2022-10-23T22:11:27.830Z,5.40
2022-10-23T22:13:37.982Z,4.50
2022-10-23T22:15:48.220Z,4.10
2022-10-23T22:17:59.660Z,4.70
2022-10-23T22:20:11.940Z,5.70
2022-10-23T22:22:22.549Z,4.70
2022-10-23T22:24:32.905Z,4.30
2022-10-23T22:26:44.892Z,4.10
2022-10-23T22:28:56.950Z,4.10
2022-10-23T22:31:06.945Z,4.40
2022-10-23T22:33:17.206Z,5.10
2022-10-23T22:35:27.375Z,4.50
2022-10-23T22:37:37.638Z,3.90
2022-10-23T22:39:47.899Z,4.80
2022-10-23T22:41:58.306Z,4.10
2022-10-23T22:44:08.778Z,6.10
2022-10-23T22:46:20.499Z,5.40
2022-10-23T22:48:31.627Z,5.10
2022-10-23T22:50:41.786Z,6.00
2022-10-23T22:52:51.887Z,4.10
2022-10-23T22:55:01.955Z,4.70
2022-10-23T22:57:14.649Z,4.50
2022-10-23T22:59:24.651Z,4.10
2022-10-23T23:01:37.967Z,4.90
2022-10-23T23:03:48.626Z,4.20
2022-10-23T23:05:58.823Z,7.10
2022-10-23T23:08:09.228Z,4.60
2022-10-23T23:10:19.321Z,5.00
2022-10-23T23:12:30.989Z,5.00
2022-10-23T23:14:41.504Z,5.70
2022-10-23T23:16:51.581Z,7.10
2022-10-23T23:19:02.806Z,6.80
2022-10-23T23:21:12.801Z,7.10
2022-10-23T23:23:23.210Z,7.10
2022-10-23T23:25:51.535Z,7.80
2022-10-23T23:28:01.855Z,8.30
2022-10-23T23:30:14.193Z,8.00
2022-10-23T23:34:32.217Z,8.80
2022-10-23T23:36:43.191Z,9.20
2022-10-23T23:38:57.600Z,7.80
2022-10-23T23:41:08.562Z,7.10
2022-10-23T23:43:18.669Z,8.20
2022-10-23T23:45:28.949Z,9.30
2022-10-23T23:47:39.331Z,12.20
2022-10-23T23:49:49.320Z,10.00
2022-10-23T23:51:59.452Z,11.80
2022-10-23T23:54:12.726Z,10.10
2022-10-23T23:56:25.028Z,9.60
2022-10-23T23:58:35.125Z,9.50
